Terminal Aerodrome Forecast
Issued by NWS Charleston, WV

Home | Current Version | Previous Version | Text Only | Print | Product List | Glossary On
Versions: 1 2 3 4 5 6 7 8 9 10 11 12 13 14 15 16 17 18 19 20 21 22 23 24 25 26 27 28 29
720
FTUS41 KRLX 240533
TAFCRW
TAF
KCRW 240533Z 2406/2506 16006KT P6SM SCT250
     FM241000 18005KT P6SM SCT100
     FM241600 17006KT P6SM SCT070
     FM250200 17010KT P6SM SCT050=

USA.gov is the U.S. government's official web portal to all federal, state and local government web resources and services.